sensor_id;sensor_type;location;lat;lon;timestamp;temperature;humidity
20977;DHT22;10647;51.016;3.720;2023-05-14T00:02:00;14.40;99.90
20977;DHT22;10647;51.016;3.720;2023-05-14T00:04:27;14.50;99.90
20977;DHT22;10647;51.016;3.720;2023-05-14T00:06:55;14.40;99.90
20977;DHT22;10647;51.016;3.720;2023-05-14T00:09:22;14.40;99.90
20977;DHT22;10647;51.016;3.720;2023-05-14T00:11:50;14.40;99.90
20977;DHT22;10647;51.016;3.720;2023-05-14T00:14:17;14.30;99.90
20977;DHT22;10647;51.016;3.720;2023-05-14T00:16:45;14.40;99.90
20977;DHT22;10647;51.016;3.720;2023-05-14T00:19:13;14.40;99.90
20977;DHT22;10647;51.016;3.720;2023-05-14T00:21:41;14.40;99.90
20977;DHT22;10647;51.016;3.720;2023-05-14T00:24:08;14.50;99.90
20977;DHT22;10647;51.016;3.720;2023-05-14T00:26:36;14.50;99.90
20977;DHT22;10647;51.016;3.720;2023-05-14T00:29:03;14.40;99.90
20977;DHT22;10647;51.016;3.720;2023-05-14T00:31:31;14.50;99.90
20977;DHT22;10647;51.016;3.720;2023-05-14T00:34:00;14.50;99.90
20977;DHT22;10647;51.016;3.720;2023-05-14T00:36:28;14.50;99.90
20977;DHT22;10647;51.016;3.720;2023-05-14T00:38:56;14.60;99.90
20977;DHT22;10647;51.016;3.720;2023-05-14T00:41:24;14.50;99.90
20977;DHT22;10647;51.016;3.720;2023-05-14T00:43:51;14.50;99.90
20977;DHT22;10647;51.016;3.720;2023-05-14T00:46:20;14.50;99.90
20977;DHT22;10647;51.016;3.720;2023-05-14T00:48:48;14.60;99.90
20977;DHT22;10647;51.016;3.720;2023-05-14T00:51:17;14.60;99.90
20977;DHT22;10647;51.016;3.720;2023-05-14T00:53:45;14.50;99.90
20977;DHT22;10647;51.016;3.720;2023-05-14T00:56:14;14.50;99.90
20977;DHT22;10647;51.016;3.720;2023-05-14T00:58:42;14.40;99.90
20977;DHT22;10647;51.016;3.720;2023-05-14T01:01:09;14.40;99.90
20977;DHT22;10647;51.016;3.720;2023-05-14T01:03:38;14.40;99.90
20977;DHT22;10647;51.016;3.720;2023-05-14T01:06:25;14.30;99.90
20977;DHT22;10647;51.016;3.720;2023-05-14T01:15:17;14.30;99.90
20977;DHT22;10647;51.016;3.720;2023-05-14T01:17:51;14.30;99.90
20977;DHT22;10647;51.016;3.720;2023-05-14T01:20:18;14.20;99.90
20977;DHT22;10647;51.016;3.720;2023-05-14T01:22:45;14.20;99.90
20977;DHT22;10647;51.016;3.720;2023-05-14T01:25:13;14.10;99.90
20977;DHT22;10647;51.016;3.720;2023-05-14T01:30:33;14.20;99.90
20977;DHT22;10647;51.016;3.720;2023-05-14T01:33:02;14.20;99.90
20977;DHT22;10647;51.016;3.720;2023-05-14T01:35:31;14.20;99.90
20977;DHT22;10647;51.016;3.720;2023-05-14T01:38:02;14.20;99.90
20977;DHT22;10647;51.016;3.720;2023-05-14T01:40:31;14.20;99.90
20977;DHT22;10647;51.016;3.720;2023-05-14T01:43:00;14.30;99.90
20977;DHT22;10647;51.016;3.720;2023-05-14T01:45:29;14.40;99.90
20977;DHT22;10647;51.016;3.720;2023-05-14T01:47:58;14.40;99.90
20977;DHT22;10647;51.016;3.720;2023-05-14T01:50:27;14.40;99.90
20977;DHT22;10647;51.016;3.720;2023-05-14T01:52:54;14.30;99.90
20977;DHT22;10647;51.016;3.720;2023-05-14T01:55:25;14.30;99.90
20977;DHT22;10647;51.016;3.720;2023-05-14T01:57:53;14.40;99.90
20977;DHT22;10647;51.016;3.720;2023-05-14T02:00:22;14.30;99.90
20977;DHT22;10647;51.016;3.720;2023-05-14T02:02:53;14.20;99.90
20977;DHT22;10647;51.016;3.720;2023-05-14T02:05:21;14.30;99.90
20977;DHT22;10647;51.016;3.720;2023-05-14T02:07:54;14.20;99.90
20977;DHT22;10647;51.016;3.720;2023-05-14T02:10:22;14.30;99.90
20977;DHT22;10647;51.016;3.720;2023-05-14T02:12:49;14.40;99.90
20977;DHT22;10647;51.016;3.720;2023-05-14T02:15:17;14.40;99.90
20977;DHT22;10647;51.016;3.720;2023-05-14T02:17:44;14.30;99.90
20977;DHT22;10647;51.016;3.720;2023-05-14T02:20:12;14.30;99.90
20977;DHT22;10647;51.016;3.720;2023-05-14T02:22:40;14.30;99.90
20977;DHT22;10647;51.016;3.720;2023-05-14T02:25:14;14.30;99.90
20977;DHT22;10647;51.016;3.720;2023-05-14T02:27:42;14.30;99.90
20977;DHT22;10647;51.016;3.720;2023-05-14T02:30:16;14.30;99.90
20977;DHT22;10647;51.016;3.720;2023-05-14T02:33:03;14.20;99.90
20977;DHT22;10647;51.016;3.720;2023-05-14T02:35:30;14.20;99.90
20977;DHT22;10647;51.016;3.720;2023-05-14T02:37:58;14.30;99.90
20977;DHT22;10647;51.016;3.720;2023-05-14T02:40:25;14.30;99.90
20977;DHT22;10647;51.016;3.720;2023-05-14T02:42:53;14.30;99.90
20977;DHT22;10647;51.016;3.720;2023-05-14T02:45:20;14.20;99.90
20977;DHT22;10647;51.016;3.720;2023-05-14T02:47:48;14.20;99.90
20977;DHT22;10647;51.016;3.720;2023-05-14T02:50:16;14.20;99.90
20977;DHT22;10647;51.016;3.720;2023-05-14T02:52:43;14.30;99.90
20977;DHT22;10647;51.016;3.720;2023-05-14T02:55:11;14.30;99.90
20977;DHT22;10647;51.016;3.720;2023-05-14T02:57:38;14.30;99.90
20977;DHT22;10647;51.016;3.720;2023-05-14T03:00:06;14.40;99.90
20977;DHT22;10647;51.016;3.720;2023-05-14T03:02:34;14.40;99.90
20977;DHT22;10647;51.016;3.720;2023-05-14T03:05:02;14.50;99.90
20977;DHT22;10647;51.016;3.720;2023-05-14T03:07:30;14.40;99.90
20977;DHT22;10647;51.016;3.720;2023-05-14T03:09:58;14.40;99.90
20977;DHT22;10647;51.016;3.720;2023-05-14T03:12:26;14.40;99.90
20977;DHT22;10647;51.016;3.720;2023-05-14T03:14:53;14.40;99.90
20977;DHT22;10647;51.016;3.720;2023-05-14T03:17:21;14.40;99.90
20977;DHT22;10647;51.016;3.720;2023-05-14T03:19:49;14.40;99.90
20977;DHT22;10647;51.016;3.720;2023-05-14T03:22:17;14.40;99.90
20977;DHT22;10647;51.016;3.720;2023-05-14T03:24:44;14.40;99.90
20977;DHT22;10647;51.016;3.720;2023-05-14T03:27:12;14.30;99.90
20977;DHT22;10647;51.016;3.720;2023-05-14T03:29:39;14.30;99.90
20977;DHT22;10647;51.016;3.720;2023-05-14T03:32:07;14.40;99.90
20977;DHT22;10647;51.016;3.720;2023-05-14T03:34:35;14.40;99.90
20977;DHT22;10647;51.016;3.720;2023-05-14T03:37:02;14.30;99.90
20977;DHT22;10647;51.016;3.720;2023-05-14T03:39:30;14.40;99.90
20977;DHT22;10647;51.016;3.720;2023-05-14T03:41:57;14.40;99.90
20977;DHT22;10647;51.016;3.720;2023-05-14T03:44:25;14.40;99.90
20977;DHT22;10647;51.016;3.720;2023-05-14T03:46:52;14.40;99.90
20977;DHT22;10647;51.016;3.720;2023-05-14T03:49:20;14.40;99.90
20977;DHT22;10647;51.016;3.720;2023-05-14T03:51:48;14.30;99.90
20977;DHT22;10647;51.016;3.720;2023-05-14T03:54:17;14.30;99.90
20977;DHT22;10647;51.016;3.720;2023-05-14T03:56:44;14.30;99.90
20977;DHT22;10647;51.016;3.720;2023-05-14T03:59:13;14.30;99.90
20977;DHT22;10647;51.016;3.720;2023-05-14T04:01:40;14.30;99.90
20977;DHT22;10647;51.016;3.720;2023-05-14T04:04:08;14.30;99.90
20977;DHT22;10647;51.016;3.720;2023-05-14T04:06:36;14.20;99.90
20977;DHT22;10647;51.016;3.720;2023-05-14T04:09:04;14.20;99.90
20977;DHT22;10647;51.016;3.720;2023-05-14T04:11:32;14.30;99.90
20977;DHT22;10647;51.016;3.720;2023-05-14T04:13:59;14.20;99.90
20977;DHT22;10647;51.016;3.720;2023-05-14T04:16:27;14.30;99.90
20977;DHT22;10647;51.016;3.720;2023-05-14T04:18:54;14.30;99.90
20977;DHT22;10647;51.016;3.720;2023-05-14T04:21:22;14.30;99.90
20977;DHT22;10647;51.016;3.720;2023-05-14T04:23:49;14.30;99.90
20977;DHT22;10647;51.016;3.720;2023-05-14T04:26:17;14.30;99.90
20977;DHT22;10647;51.016;3.720;2023-05-14T04:28:44;14.40;99.90
20977;DHT22;10647;51.016;3.720;2023-05-14T04:31:12;14.30;99.90
20977;DHT22;10647;51.016;3.720;2023-05-14T04:33:40;14.30;99.90
20977;DHT22;10647;51.016;3.720;2023-05-14T04:36:08;14.20;99.90
20977;DHT22;10647;51.016;3.720;2023-05-14T04:38:38;14.20;99.90
20977;DHT22;10647;51.016;3.720;2023-05-14T04:41:06;14.20;99.90
20977;DHT22;10647;51.016;3.720;2023-05-14T04:43:34;14.20;99.90
20977;DHT22;10647;51.016;3.720;2023-05-14T04:46:07;14.10;99.90
20977;DHT22;10647;51.016;3.720;2023-05-14T04:48:38;14.10;99.90
20977;DHT22;10647;51.016;3.720;2023-05-14T04:51:14;14.10;99.90
20977;DHT22;10647;51.016;3.720;2023-05-14T04:53:47;14.10;99.90
20977;DHT22;10647;51.016;3.720;2023-05-14T04:56:15;14.10;99.90
20977;DHT22;10647;51.016;3.720;2023-05-14T04:58:42;14.00;99.90
20977;DHT22;10647;51.016;3.720;2023-05-14T05:01:10;13.90;99.90
20977;DHT22;10647;51.016;3.720;2023-05-14T05:03:37;13.90;99.90
20977;DHT22;10647;51.016;3.720;2023-05-14T05:06:05;14.00;99.90
20977;DHT22;10647;51.016;3.720;2023-05-14T05:08:33;14.00;99.90
20977;DHT22;10647;51.016;3.720;2023-05-14T05:11:00;14.00;99.90
20977;DHT22;10647;51.016;3.720;2023-05-14T05:13:28;14.10;99.90
20977;DHT22;10647;51.016;3.720;2023-05-14T05:15:55;14.10;99.90
20977;DHT22;10647;51.016;3.720;2023-05-14T05:18:23;14.20;99.90
20977;DHT22;10647;51.016;3.720;2023-05-14T05:20:51;14.30;99.90
20977;DHT22;10647;51.016;3.720;2023-05-14T05:23:18;14.30;99.90
20977;DHT22;10647;51.016;3.720;2023-05-14T05:25:48;14.30;99.90
20977;DHT22;10647;51.016;3.720;2023-05-14T05:28:19;14.40;99.90
20977;DHT22;10647;51.016;3.720;2023-05-14T05:30:47;14.50;99.90
20977;DHT22;10647;51.016;3.720;2023-05-14T05:33:14;14.60;99.90
20977;DHT22;10647;51.016;3.720;2023-05-14T05:35:42;14.60;99.90
20977;DHT22;10647;51.016;3.720;2023-05-14T05:38:16;14.60;99.90
20977;DHT22;10647;51.016;3.720;2023-05-14T05:40:43;14.70;99.90
20977;DHT22;10647;51.016;3.720;2023-05-14T05:43:11;14.70;99.90
20977;DHT22;10647;51.016;3.720;2023-05-14T05:45:59;14.70;99.90
20977;DHT22;10647;51.016;3.720;2023-05-14T05:48:27;14.90;99.90
20977;DHT22;10647;51.016;3.720;2023-05-14T05:50:54;14.90;99.90
20977;DHT22;10647;51.016;3.720;2023-05-14T05:53:22;15.00;99.90
20977;DHT22;10647;51.016;3.720;2023-05-14T05:55:49;15.00;99.90
20977;DHT22;10647;51.016;3.720;2023-05-14T05:58:20;15.00;99.90
20977;DHT22;10647;51.016;3.720;2023-05-14T06:00:47;15.10;99.90
20977;DHT22;10647;51.016;3.720;2023-05-14T06:03:17;15.00;99.90
20977;DHT22;10647;51.016;3.720;2023-05-14T06:05:45;15.10;99.90
20977;DHT22;10647;51.016;3.720;2023-05-14T06:08:12;15.20;99.90
20977;DHT22;10647;51.016;3.720;2023-05-14T06:10:40;15.10;99.90
20977;DHT22;10647;51.016;3.720;2023-05-14T06:13:27;15.10;99.90
20977;DHT22;10647;51.016;3.720;2023-05-14T06:15:57;15.20;99.90
20977;DHT22;10647;51.016;3.720;2023-05-14T06:18:29;15.20;99.90
20977;DHT22;10647;51.016;3.720;2023-05-14T06:20:57;15.20;99.90
20977;DHT22;10647;51.016;3.720;2023-05-14T06:23:26;15.20;99.90
20977;DHT22;10647;51.016;3.720;2023-05-14T06:25:55;15.30;99.90
20977;DHT22;10647;51.016;3.720;2023-05-14T06:28:22;15.20;99.90
20977;DHT22;10647;51.016;3.720;2023-05-14T06:30:50;15.20;99.90
20977;DHT22;10647;51.016;3.720;2023-05-14T06:33:20;15.00;99.90
20977;DHT22;10647;51.016;3.720;2023-05-14T06:35:49;14.90;99.90
20977;DHT22;10647;51.016;3.720;2023-05-14T06:38:17;15.00;99.90
20977;DHT22;10647;51.016;3.720;2023-05-14T06:40:44;15.10;99.90
20977;DHT22;10647;51.016;3.720;2023-05-14T06:43:12;15.10;99.90
20977;DHT22;10647;51.016;3.720;2023-05-14T06:45:39;15.10;99.90
20977;DHT22;10647;51.016;3.720;2023-05-14T06:48:07;15.00;99.90
20977;DHT22;10647;51.016;3.720;2023-05-14T06:50:35;15.10;99.90
20977;DHT22;10647;51.016;3.720;2023-05-14T06:53:03;15.20;99.90
20977;DHT22;10647;51.016;3.720;2023-05-14T06:55:30;15.30;99.90
20977;DHT22;10647;51.016;3.720;2023-05-14T06:57:58;15.30;99.90
20977;DHT22;10647;51.016;3.720;2023-05-14T07:00:25;15.30;99.90
20977;DHT22;10647;51.016;3.720;2023-05-14T07:02:53;15.30;99.90
20977;DHT22;10647;51.016;3.720;2023-05-14T07:05:26;15.40;99.90
20977;DHT22;10647;51.016;3.720;2023-05-14T07:07:57;15.40;99.90
20977;DHT22;10647;51.016;3.720;2023-05-14T07:10:27;15.50;99.90
20977;DHT22;10647;51.016;3.720;2023-05-14T07:12:56;15.50;99.90
20977;DHT22;10647;51.016;3.720;2023-05-14T07:15:23;15.50;99.90
20977;DHT22;10647;51.016;3.720;2023-05-14T07:17:51;15.60;99.90
20977;DHT22;10647;51.016;3.720;2023-05-14T07:20:18;15.60;99.90
20977;DHT22;10647;51.016;3.720;2023-05-14T07:22:47;15.50;99.90
20977;DHT22;10647;51.016;3.720;2023-05-14T07:25:14;15.60;99.90
20977;DHT22;10647;51.016;3.720;2023-05-14T07:27:42;15.70;99.90
20977;DHT22;10647;51.016;3.720;2023-05-14T07:30:11;15.80;99.90
20977;DHT22;10647;51.016;3.720;2023-05-14T07:32:44;15.70;99.90
20977;DHT22;10647;51.016;3.720;2023-05-14T07:35:14;15.80;99.90
20977;DHT22;10647;51.016;3.720;2023-05-14T07:37:44;16.00;99.90
20977;DHT22;10647;51.016;3.720;2023-05-14T07:40:18;16.20;99.90
20977;DHT22;10647;51.016;3.720;2023-05-14T07:42:45;16.20;99.90
20977;DHT22;10647;51.016;3.720;2023-05-14T07:45:32;16.20;99.90
20977;DHT22;10647;51.016;3.720;2023-05-14T07:48:01;16.40;99.90
20977;DHT22;10647;51.016;3.720;2023-05-14T07:50:30;16.40;99.90
20977;DHT22;10647;51.016;3.720;2023-05-14T07:52:58;16.30;99.90
20977;DHT22;10647;51.016;3.720;2023-05-14T07:55:25;16.30;99.90
20977;DHT22;10647;51.016;3.720;2023-05-14T07:58:12;16.40;99.90
20977;DHT22;10647;51.016;3.720;2023-05-14T08:00:40;16.50;99.90
20977;DHT22;10647;51.016;3.720;2023-05-14T08:03:07;16.50;99.90
20977;DHT22;10647;51.016;3.720;2023-05-14T08:05:35;16.60;99.90
20977;DHT22;10647;51.016;3.720;2023-05-14T08:08:03;16.60;99.90
20977;DHT22;10647;51.016;3.720;2023-05-14T08:10:30;16.80;99.90
20977;DHT22;10647;51.016;3.720;2023-05-14T08:13:00;16.90;99.90
20977;DHT22;10647;51.016;3.720;2023-05-14T08:15:29;17.00;99.90
20977;DHT22;10647;51.016;3.720;2023-05-14T08:17:57;17.10;99.90
20977;DHT22;10647;51.016;3.720;2023-05-14T08:20:28;17.20;99.90
20977;DHT22;10647;51.016;3.720;2023-05-14T08:22:59;17.40;99.90
20977;DHT22;10647;51.016;3.720;2023-05-14T08:25:26;17.30;99.90
20977;DHT22;10647;51.016;3.720;2023-05-14T08:27:56;17.40;99.90
20977;DHT22;10647;51.016;3.720;2023-05-14T08:30:27;17.60;99.90
20977;DHT22;10647;51.016;3.720;2023-05-14T08:33:00;18.00;99.90
20977;DHT22;10647;51.016;3.720;2023-05-14T08:35:33;18.30;99.90
20977;DHT22;10647;51.016;3.720;2023-05-14T08:38:01;18.40;99.90
20977;DHT22;10647;51.016;3.720;2023-05-14T08:40:35;18.30;99.90
20977;DHT22;10647;51.016;3.720;2023-05-14T08:43:02;18.40;99.90
20977;DHT22;10647;51.016;3.720;2023-05-14T08:45:30;18.60;99.90
20977;DHT22;10647;51.016;3.720;2023-05-14T08:48:00;19.10;99.90
20977;DHT22;10647;51.016;3.720;2023-05-14T08:50:32;19.30;99.90
20977;DHT22;10647;51.016;3.720;2023-05-14T08:53:04;19.40;99.90
20977;DHT22;10647;51.016;3.720;2023-05-14T08:55:34;19.50;99.90
20977;DHT22;10647;51.016;3.720;2023-05-14T08:58:06;19.50;99.90
20977;DHT22;10647;51.016;3.720;2023-05-14T09:00:34;19.30;99.90
20977;DHT22;10647;51.016;3.720;2023-05-14T09:03:04;19.00;99.90
20977;DHT22;10647;51.016;3.720;2023-05-14T09:05:32;18.70;99.90
20977;DHT22;10647;51.016;3.720;2023-05-14T09:07:59;18.50;99.90
20977;DHT22;10647;51.016;3.720;2023-05-14T09:10:27;18.60;99.90
20977;DHT22;10647;51.016;3.720;2023-05-14T09:12:54;19.00;99.90
20977;DHT22;10647;51.016;3.720;2023-05-14T09:15:23;19.60;99.90
20977;DHT22;10647;51.016;3.720;2023-05-14T09:17:50;20.00;99.90
20977;DHT22;10647;51.016;3.720;2023-05-14T09:20:18;20.20;99.90
20977;DHT22;10647;51.016;3.720;2023-05-14T09:22:46;20.00;99.90
20977;DHT22;10647;51.016;3.720;2023-05-14T09:25:14;19.90;99.90
20977;DHT22;10647;51.016;3.720;2023-05-14T09:27:41;19.70;99.90
20977;DHT22;10647;51.016;3.720;2023-05-14T09:30:10;19.30;99.90
20977;DHT22;10647;51.016;3.720;2023-05-14T09:32:40;19.10;99.90
20977;DHT22;10647;51.016;3.720;2023-05-14T09:35:15;18.80;99.90
20977;DHT22;10647;51.016;3.720;2023-05-14T09:37:44;18.80;99.90
20977;DHT22;10647;51.016;3.720;2023-05-14T09:40:13;18.80;99.90
20977;DHT22;10647;51.016;3.720;2023-05-14T09:42:41;18.70;99.90
20977;DHT22;10647;51.016;3.720;2023-05-14T09:45:10;18.90;99.90
20977;DHT22;10647;51.016;3.720;2023-05-14T09:47:38;19.10;99.90
20977;DHT22;10647;51.016;3.720;2023-05-14T09:50:07;19.10;99.90
20977;DHT22;10647;51.016;3.720;2023-05-14T09:52:35;19.30;99.90
20977;DHT22;10647;51.016;3.720;2023-05-14T09:55:03;19.20;99.90
20977;DHT22;10647;51.016;3.720;2023-05-14T09:57:31;19.30;99.90
20977;DHT22;10647;51.016;3.720;2023-05-14T09:59:59;19.30;99.90
20977;DHT22;10647;51.016;3.720;2023-05-14T10:02:34;19.50;99.90
20977;DHT22;10647;51.016;3.720;2023-05-14T10:05:00;19.60;99.90
20977;DHT22;10647;51.016;3.720;2023-05-14T10:07:33;19.70;99.90
20977;DHT22;10647;51.016;3.720;2023-05-14T10:10:04;19.80;99.90
20977;DHT22;10647;51.016;3.720;2023-05-14T10:12:34;19.90;99.90
20977;DHT22;10647;51.016;3.720;2023-05-14T10:15:15;19.90;99.90
20977;DHT22;10647;51.016;3.720;2023-05-14T10:17:51;19.90;99.90
20977;DHT22;10647;51.016;3.720;2023-05-14T10:20:22;19.90;99.90
20977;DHT22;10647;51.016;3.720;2023-05-14T10:22:57;19.90;99.90
20977;DHT22;10647;51.016;3.720;2023-05-14T10:25:26;20.00;99.90
20977;DHT22;10647;51.016;3.720;2023-05-14T10:27:54;20.20;99.90
20977;DHT22;10647;51.016;3.720;2023-05-14T10:30:21;20.10;99.90
20977;DHT22;10647;51.016;3.720;2023-05-14T10:33:04;20.10;99.90
20977;DHT22;10647;51.016;3.720;2023-05-14T10:35:19;20.20;99.90
20977;DHT22;10647;51.016;3.720;2023-05-14T10:37:50;20.40;99.90
20977;DHT22;10647;51.016;3.720;2023-05-14T10:40:18;20.40;99.90
20977;DHT22;10647;51.016;3.720;2023-05-14T10:42:46;20.40;99.90
20977;DHT22;10647;51.016;3.720;2023-05-14T10:45:15;20.40;99.90
20977;DHT22;10647;51.016;3.720;2023-05-14T10:47:45;20.50;99.90
20977;DHT22;10647;51.016;3.720;2023-05-14T10:50:14;20.60;99.90
20977;DHT22;10647;51.016;3.720;2023-05-14T10:52:44;20.70;99.90
20977;DHT22;10647;51.016;3.720;2023-05-14T10:55:16;20.80;99.90
20977;DHT22;10647;51.016;3.720;2023-05-14T10:57:44;20.90;99.90
20977;DHT22;10647;51.016;3.720;2023-05-14T11:00:13;21.00;99.90
20977;DHT22;10647;51.016;3.720;2023-05-14T11:02:42;21.00;99.90
20977;DHT22;10647;51.016;3.720;2023-05-14T11:05:14;21.00;99.90
20977;DHT22;10647;51.016;3.720;2023-05-14T11:07:44;21.20;99.90
20977;DHT22;10647;51.016;3.720;2023-05-14T11:10:17;21.30;99.90
20977;DHT22;10647;51.016;3.720;2023-05-14T11:12:51;21.50;99.90
20977;DHT22;10647;51.016;3.720;2023-05-14T11:15:24;21.50;99.90
20977;DHT22;10647;51.016;3.720;2023-05-14T11:17:49;21.60;99.90
20977;DHT22;10647;51.016;3.720;2023-05-14T11:20:26;21.70;99.90
20977;DHT22;10647;51.016;3.720;2023-05-14T11:23:00;21.70;99.90
20977;DHT22;10647;51.016;3.720;2023-05-14T11:25:30;21.70;99.90
20977;DHT22;10647;51.016;3.720;2023-05-14T11:28:04;21.60;99.90
20977;DHT22;10647;51.016;3.720;2023-05-14T11:30:32;21.90;99.90
20977;DHT22;10647;51.016;3.720;2023-05-14T11:33:03;22.10;99.90
20977;DHT22;10647;51.016;3.720;2023-05-14T11:35:32;21.90;99.90
20977;DHT22;10647;51.016;3.720;2023-05-14T11:38:05;21.90;99.90
20977;DHT22;10647;51.016;3.720;2023-05-14T11:40:54;21.80;99.90
20977;DHT22;10647;51.016;3.720;2023-05-14T11:43:28;21.90;99.90
20977;DHT22;10647;51.016;3.720;2023-05-14T11:46:00;21.90;99.90
20977;DHT22;10647;51.016;3.720;2023-05-14T11:48:36;22.10;99.90
20977;DHT22;10647;51.016;3.720;2023-05-14T11:51:04;22.20;99.90
20977;DHT22;10647;51.016;3.720;2023-05-14T11:53:37;22.20;99.90
20977;DHT22;10647;51.016;3.720;2023-05-14T11:56:07;22.20;99.90
20977;DHT22;10647;51.016;3.720;2023-05-14T11:58:37;22.30;99.90
20977;DHT22;10647;51.016;3.720;2023-05-14T12:01:04;22.40;99.90
20977;DHT22;10647;51.016;3.720;2023-05-14T12:03:32;22.30;99.90
20977;DHT22;10647;51.016;3.720;2023-05-14T12:06:29;22.60;99.90
20977;DHT22;10647;51.016;3.720;2023-05-14T12:08:55;22.70;99.90
20977;DHT22;10647;51.016;3.720;2023-05-14T12:11:23;22.60;99.90
20977;DHT22;10647;51.016;3.720;2023-05-14T12:13:59;22.70;99.90
20977;DHT22;10647;51.016;3.720;2023-05-14T12:19:52;23.00;99.90
20977;DHT22;10647;51.016;3.720;2023-05-14T12:22:22;23.30;99.90
20977;DHT22;10647;51.016;3.720;2023-05-14T12:24:57;23.40;99.90
20977;DHT22;10647;51.016;3.720;2023-05-14T12:27:28;23.70;99.90
20977;DHT22;10647;51.016;3.720;2023-05-14T12:30:06;23.80;99.90
20977;DHT22;10647;51.016;3.720;2023-05-14T12:32:36;23.90;99.90
20977;DHT22;10647;51.016;3.720;2023-05-14T12:35:06;23.90;99.90
20977;DHT22;10647;51.016;3.720;2023-05-14T12:37:33;24.20;99.90
20977;DHT22;10647;51.016;3.720;2023-05-14T12:40:03;24.40;99.90
20977;DHT22;10647;51.016;3.720;2023-05-14T12:42:43;24.30;99.90
20977;DHT22;10647;51.016;3.720;2023-05-14T12:45:11;24.40;99.90
20977;DHT22;10647;51.016;3.720;2023-05-14T12:47:38;24.10;99.90
20977;DHT22;10647;51.016;3.720;2023-05-14T12:50:06;24.20;99.90
20977;DHT22;10647;51.016;3.720;2023-05-14T12:52:34;24.30;99.90
20977;DHT22;10647;51.016;3.720;2023-05-14T12:55:08;24.50;99.90
20977;DHT22;10647;51.016;3.720;2023-05-14T12:57:42;25.00;99.90
20977;DHT22;10647;51.016;3.720;2023-05-14T13:00:16;26.50;99.90
20977;DHT22;10647;51.016;3.720;2023-05-14T13:02:46;29.90;99.90
20977;DHT22;10647;51.016;3.720;2023-05-14T13:05:14;32.70;99.90
20977;DHT22;10647;51.016;3.720;2023-05-14T13:07:41;34.40;99.90
20977;DHT22;10647;51.016;3.720;2023-05-14T13:10:09;36.00;99.90
20977;DHT22;10647;51.016;3.720;2023-05-14T13:12:37;37.40;99.90
20977;DHT22;10647;51.016;3.720;2023-05-14T13:15:05;37.60;99.90
20977;DHT22;10647;51.016;3.720;2023-05-14T13:17:32;38.20;99.90
20977;DHT22;10647;51.016;3.720;2023-05-14T13:20:00;37.40;99.90
20977;DHT22;10647;51.016;3.720;2023-05-14T13:22:27;37.90;99.90
20977;DHT22;10647;51.016;3.720;2023-05-14T13:24:55;38.70;99.90
20977;DHT22;10647;51.016;3.720;2023-05-14T13:27:22;39.20;99.70
20977;DHT22;10647;51.016;3.720;2023-05-14T13:29:50;38.80;99.60
20977;DHT22;10647;51.016;3.720;2023-05-14T13:32:18;39.10;98.10
20977;DHT22;10647;51.016;3.720;2023-05-14T13:34:46;38.70;97.90
20977;DHT22;10647;51.016;3.720;2023-05-14T13:37:13;38.50;97.30
20977;DHT22;10647;51.016;3.720;2023-05-14T13:39:41;38.10;96.00
20977;DHT22;10647;51.016;3.720;2023-05-14T13:42:08;37.60;99.40
20977;DHT22;10647;51.016;3.720;2023-05-14T13:44:36;37.40;98.20
20977;DHT22;10647;51.016;3.720;2023-05-14T13:47:04;37.20;97.10
20977;DHT22;10647;51.016;3.720;2023-05-14T13:49:31;36.00;98.80
20977;DHT22;10647;51.016;3.720;2023-05-14T13:51:59;35.70;98.20
20977;DHT22;10647;51.016;3.720;2023-05-14T13:54:27;35.60;99.70
20977;DHT22;10647;51.016;3.720;2023-05-14T13:56:55;36.60;99.10
20977;DHT22;10647;51.016;3.720;2023-05-14T13:59:27;37.00;98.60
20977;DHT22;10647;51.016;3.720;2023-05-14T14:01:54;37.00;98.00
20977;DHT22;10647;51.016;3.720;2023-05-14T14:04:22;36.80;98.90
20977;DHT22;10647;51.016;3.720;2023-05-14T14:06:51;36.50;99.90
20977;DHT22;10647;51.016;3.720;2023-05-14T14:09:19;35.90;99.10
20977;DHT22;10647;51.016;3.720;2023-05-14T14:11:47;35.40;99.00
20977;DHT22;10647;51.016;3.720;2023-05-14T14:14:14;35.10;99.20
20977;DHT22;10647;51.016;3.720;2023-05-14T14:16:43;34.70;98.40
20977;DHT22;10647;51.016;3.720;2023-05-14T14:19:11;34.90;99.90
20977;DHT22;10647;51.016;3.720;2023-05-14T14:21:38;35.00;99.90
20977;DHT22;10647;51.016;3.720;2023-05-14T14:24:08;35.00;99.90
20977;DHT22;10647;51.016;3.720;2023-05-14T14:26:35;34.00;99.00
20977;DHT22;10647;51.016;3.720;2023-05-14T14:29:03;33.70;99.90
20977;DHT22;10647;51.016;3.720;2023-05-14T14:31:30;33.90;99.90
20977;DHT22;10647;51.016;3.720;2023-05-14T14:33:58;33.60;99.90
20977;DHT22;10647;51.016;3.720;2023-05-14T14:36:25;32.80;99.90
20977;DHT22;10647;51.016;3.720;2023-05-14T14:38:55;32.60;99.90
20977;DHT22;10647;51.016;3.720;2023-05-14T14:41:22;32.80;99.90
20977;DHT22;10647;51.016;3.720;2023-05-14T14:43:50;32.60;99.90
20977;DHT22;10647;51.016;3.720;2023-05-14T14:46:17;33.30;99.90
20977;DHT22;10647;51.016;3.720;2023-05-14T14:48:45;34.30;99.90
20977;DHT22;10647;51.016;3.720;2023-05-14T14:51:12;34.70;99.90
20977;DHT22;10647;51.016;3.720;2023-05-14T14:53:40;35.30;99.90
20977;DHT22;10647;51.016;3.720;2023-05-14T14:56:08;35.40;99.90
20977;DHT22;10647;51.016;3.720;2023-05-14T14:58:35;35.50;98.70
20977;DHT22;10647;51.016;3.720;2023-05-14T15:01:04;35.50;99.90
20977;DHT22;10647;51.016;3.720;2023-05-14T15:03:31;35.50;97.90
20977;DHT22;10647;51.016;3.720;2023-05-14T15:05:59;35.40;99.90
20977;DHT22;10647;51.016;3.720;2023-05-14T15:08:27;35.70;99.90
20977;DHT22;10647;51.016;3.720;2023-05-14T15:10:57;35.70;99.20
20977;DHT22;10647;51.016;3.720;2023-05-14T15:13:25;36.00;99.90
20977;DHT22;10647;51.016;3.720;2023-05-14T15:15:53;36.10;99.90
20977;DHT22;10647;51.016;3.720;2023-05-14T15:18:21;34.80;99.00
20977;DHT22;10647;51.016;3.720;2023-05-14T15:20:48;33.80;99.90
20977;DHT22;10647;51.016;3.720;2023-05-14T15:23:17;33.90;99.90
20977;DHT22;10647;51.016;3.720;2023-05-14T15:25:45;33.40;99.90
20977;DHT22;10647;51.016;3.720;2023-05-14T15:28:14;31.90;99.90
20977;DHT22;10647;51.016;3.720;2023-05-14T15:30:42;30.60;99.90
20977;DHT22;10647;51.016;3.720;2023-05-14T15:33:10;29.40;99.90
20977;DHT22;10647;51.016;3.720;2023-05-14T15:35:37;28.60;99.90
20977;DHT22;10647;51.016;3.720;2023-05-14T15:38:06;27.90;99.90
20977;DHT22;10647;51.016;3.720;2023-05-14T15:40:33;27.30;99.90
20977;DHT22;10647;51.016;3.720;2023-05-14T15:43:01;26.60;99.90
20977;DHT22;10647;51.016;3.720;2023-05-14T15:45:29;26.10;99.90
20977;DHT22;10647;51.016;3.720;2023-05-14T15:47:56;25.70;99.90
20977;DHT22;10647;51.016;3.720;2023-05-14T15:50:24;26.10;99.90
20977;DHT22;10647;51.016;3.720;2023-05-14T15:52:53;26.00;99.90
20977;DHT22;10647;51.016;3.720;2023-05-14T15:55:20;25.60;99.90